Time;durP1;ratioP1;P1;durP2;ratioP2;P2;SDS_P1;SDS_P2;PMS_P1;PMS_P2;Temp;Humidity;BMP_temperature;BMP_pressure;BME280_temperature;BME280_humidity;BME280_pressure;Samples;Min_cycle;Max_cycle;Signal;HPM_P1;HPM_P2
2022/11/06 00:10:15;;;;;;;6.00;2.10;;;10.40;99.90;;;;;;6203499;23;20037;-93
2022/11/06 00:12:41;;;;;;;4.88;1.80;;;10.40;99.90;;;;;;6161977;23;20097;-93
2022/11/06 00:15:07;;;;;;;5.07;2.40;;;10.40;99.90;;;;;;6161332;23;20044;-93
2022/11/06 00:25:19;;;;;;;5.20;2.03;;;10.30;99.90;;;;;;6222273;22;20024;-92
2022/11/06 00:27:46;;;;;;;7.83;2.30;;;10.30;99.90;;;;;;6288809;22;20021;-94
2022/11/06 00:30:12;;;;;;;6.10;2.50;;;10.30;99.90;;;;;;6300059;22;20062;-93
2022/11/06 00:32:38;;;;;;;4.97;2.50;;;10.20;99.90;;;;;;6315859;22;20006;-91
2022/11/06 00:35:05;;;;;;;6.63;2.67;;;10.20;99.90;;;;;;6276291;22;20072;-91
2022/11/06 00:37:30;;;;;;;5.15;2.20;;;10.20;99.90;;;;;;6261715;22;20101;-91
2022/11/06 00:40:15;;;;;;;7.00;2.40;;;10.20;99.90;;;;;;6285743;22;20046;-89
2022/11/06 00:43:23;;;;;;;5.47;2.10;;;10.10;99.90;;;;;;6287022;22;20087;-92
2022/11/06 00:45:51;;;;;;;4.95;2.10;;;10.10;99.90;;;;;;6287076;22;20344;-93
2022/11/06 00:49:08;;;;;;;7.30;2.33;;;10.10;99.90;;;;;;6288093;22;20015;-90
2022/11/06 00:51:38;;;;;;;7.78;2.92;;;10.10;99.90;;;;;;6230839;22;20033;-90
2022/11/06 01:09:31;;;;;;;11.60;3.03;;;9.90;99.90;;;;;;6280109;22;20029;-90
2022/11/06 01:11:58;;;;;;;7.05;2.70;;;9.90;99.90;;;;;;6136617;23;20078;-93
2022/11/06 01:14:24;;;;;;;5.78;2.72;;;9.90;99.90;;;;;;6136787;23;20121;-91
2022/11/06 01:16:50;;;;;;;7.30;3.20;;;9.80;99.90;;;;;;6161104;23;20097;-91
2022/11/06 01:19:17;;;;;;;7.30;2.93;;;9.80;99.90;;;;;;6136691;23;20017;-92
2022/11/06 01:21:46;;;;;;;9.82;3.20;;;9.80;99.90;;;;;;6161003;23;20012;-93
2022/11/06 01:24:23;;;;;;;5.93;2.80;;;9.80;99.90;;;;;;6161234;23;20017;-93
2022/11/06 01:26:50;;;;;;;5.38;2.58;;;9.80;99.90;;;;;;6161618;23;20315;-92
2022/11/06 01:29:18;;;;;;;7.47;3.00;;;9.80;99.90;;;;;;6161139;23;20017;-91
2022/11/06 01:31:44;;;;;;;8.38;3.38;;;9.80;99.90;;;;;;6161235;23;20361;-92
2022/11/06 01:34:11;;;;;;;6.15;2.85;;;9.80;99.90;;;;;;6161203;23;20019;-91
2022/11/06 01:36:39;;;;;;;6.60;2.80;;;9.80;99.90;;;;;;6160524;23;20017;-93
2022/11/06 01:39:28;;;;;;;6.45;3.08;;;9.80;99.90;;;;;;6161804;23;20027;-94
2022/11/06 01:41:54;;;;;;;5.43;2.67;;;9.70;99.90;;;;;;6161428;23;20069;-92
2022/11/06 01:44:32;;;;;;;10.47;3.37;;;9.80;99.90;;;;;;6136863;23;20445;-92
2022/11/06 01:46:59;;;;;;;7.32;3.10;;;9.80;99.90;;;;;;6161461;23;20252;-91
2022/11/06 01:49:27;;;;;;;7.80;3.08;;;9.80;99.90;;;;;;6161171;23;20016;-95
2022/11/06 01:51:58;;;;;;;6.45;2.75;;;9.80;99.90;;;;;;6161261;23;20023;-91
2022/11/06 01:54:27;;;;;;;8.48;3.25;;;9.80;99.90;;;;;;6161323;23;20021;-91
2022/11/06 01:56:57;;;;;;;7.38;3.10;;;9.70;99.90;;;;;;6162061;22;20048;-92
2022/11/06 01:59:26;;;;;;;6.45;2.80;;;9.80;99.90;;;;;;6160951;23;20100;-95
2022/11/06 02:01:55;;;;;;;7.07;3.13;;;9.80;99.90;;;;;;6160931;23;20329;-93
2022/11/06 02:04:30;;;;;;;6.18;3.03;;;9.70;99.90;;;;;;6161024;23;20020;-92
2022/11/06 02:06:58;;;;;;;6.82;2.83;;;9.70;99.90;;;;;;6161165;23;20016;-95
2022/11/06 02:09:24;;;;;;;6.82;2.90;;;9.70;99.90;;;;;;6160773;23;20012;-91
2022/11/06 02:12:13;;;;;;;5.40;3.08;;;9.70;99.90;;;;;;6161014;23;20044;-92
2022/11/06 02:15:09;;;;;;;6.65;3.20;;;9.70;99.90;;;;;;6160891;23;20077;-91
2022/11/06 02:18:13;;;;;;;6.55;3.30;;;9.70;99.90;;;;;;6161180;22;20464;-93
2022/11/06 02:20:43;;;;;;;6.40;3.40;;;9.70;99.90;;;;;;6160876;23;20021;-92
2022/11/06 02:23:24;;;;;;;6.68;2.92;;;9.70;99.90;;;;;;6161257;23;20089;-93
2022/11/06 02:26:43;;;;;;;7.53;3.42;;;9.70;99.90;;;;;;6160929;23;20069;-90
2022/11/06 02:29:18;;;;;;;5.65;2.75;;;9.70;99.90;;;;;;6189133;23;20064;-93
2022/11/06 02:31:46;;;;;;;6.35;3.50;;;9.70;99.90;;;;;;6161078;23;20016;-91
2022/11/06 02:34:15;;;;;;;6.65;3.30;;;9.70;99.90;;;;;;6163385;23;20013;-90
2022/11/06 02:36:53;;;;;;;7.07;3.13;;;9.70;99.90;;;;;;6164260;22;20020;-91
2022/11/06 02:39:23;;;;;;;6.97;2.78;;;9.70;99.90;;;;;;6160736;23;20222;-93
2022/11/06 02:41:52;;;;;;;8.07;2.92;;;9.70;99.90;;;;;;6160692;23;20130;-91
2022/11/06 02:44:23;;;;;;;6.38;3.40;;;9.70;99.90;;;;;;6160921;23;20021;-92
2022/11/06 02:46:52;;;;;;;7.13;3.33;;;9.70;99.90;;;;;;6161087;23;20023;-92
2022/11/06 02:49:26;;;;;;;6.05;3.35;;;9.70;99.90;;;;;;6160907;23;20017;-92
2022/11/06 02:51:57;;;;;;;7.22;3.10;;;9.70;99.90;;;;;;6160849;23;20009;-91
2022/11/06 02:54:26;;;;;;;6.10;3.08;;;9.70;99.90;;;;;;6160784;23;20021;-91
2022/11/06 02:56:56;;;;;;;6.03;3.17;;;9.70;99.90;;;;;;6160805;23;20376;-92
2022/11/06 02:59:46;;;;;;;7.28;3.28;;;9.70;99.90;;;;;;6160330;23;20360;-92
2022/11/06 03:02:19;;;;;;;6.15;2.88;;;9.70;99.90;;;;;;6160584;23;20068;-90
2022/11/06 03:05:00;;;;;;;7.10;3.60;;;9.70;99.90;;;;;;6161047;23;20017;-93
2022/11/06 03:07:49;;;;;;;6.25;3.33;;;9.70;99.90;;;;;;6161952;23;20024;-93
2022/11/06 03:10:15;;;;;;;6.57;3.20;;;9.70;99.90;;;;;;6176713;22;20009;-92
2022/11/06 03:12:57;;;;;;;8.20;3.60;;;9.70;99.90;;;;;;6187449;22;20028;-91
2022/11/06 03:15:33;;;;;;;6.80;3.60;;;9.70;99.90;;;;;;6168728;22;20027;-93
2022/11/06 03:18:18;;;;;;;6.68;3.55;;;9.80;99.90;;;;;;6160127;23;20136;-92
2022/11/06 03:57:40;;;;;;;5.28;3.00;;;9.80;99.90;;;;;;6236674;22;20023;-88
2022/11/06 04:00:08;;;;;;;5.43;2.88;;;9.80;99.90;;;;;;6285990;22;20084;-88
2022/11/06 04:23:43;;;;;;;5.55;3.03;;;9.80;99.90;;;;;;6315668;22;20025;-91
2022/11/06 04:26:36;;;;;;;8.35;3.22;;;9.80;99.90;;;;;;6161424;23;20058;-90
2022/11/06 04:29:24;;;;;;;6.57;3.00;;;9.80;99.90;;;;;;6161476;23;20338;-90
2022/11/06 04:32:00;;;;;;;6.00;2.97;;;9.80;99.90;;;;;;6156921;23;20068;-90
2022/11/06 04:34:54;;;;;;;5.63;3.10;;;9.80;99.90;;;;;;6161917;23;20040;-89
2022/11/06 04:38:09;;;;;;;5.75;3.03;;;9.80;99.90;;;;;;6161737;23;20021;-89
2022/11/06 04:41:05;;;;;;;7.10;2.65;;;9.80;99.90;;;;;;6190066;23;20021;-90
2022/11/06 04:43:57;;;;;;;6.40;3.05;;;9.80;99.90;;;;;;6161667;23;20013;-92
2022/11/06 04:46:28;;;;;;;6.10;2.67;;;9.80;99.90;;;;;;6161524;23;20345;-90
2022/11/06 04:48:54;;;;;;;7.40;2.90;;;9.80;99.90;;;;;;6161427;23;20021;-90
2022/11/06 04:51:26;;;;;;;5.40;2.58;;;9.80;99.90;;;;;;6137168;23;20040;-95
2022/11/06 04:53:53;;;;;;;6.40;2.70;;;9.80;99.90;;;;;;6161613;23;20023;-91
2022/11/06 04:56:30;;;;;;;5.22;2.95;;;9.80;99.90;;;;;;6161170;23;20047;-90
2022/11/06 04:58:56;;;;;;;6.00;3.30;;;9.80;99.90;;;;;;6160951;23;20052;-93
2022/11/06 05:01:21;;;;;;;7.97;3.22;;;9.80;99.90;;;;;;6161436;23;20457;-89
2022/11/06 05:03:47;;;;;;;7.37;2.97;;;9.80;99.90;;;;;;6161524;23;20099;-89
2022/11/06 05:06:13;;;;;;;5.40;2.93;;;9.80;99.90;;;;;;6161460;22;20019;-90
2022/11/06 05:08:39;;;;;;;6.00;2.90;;;9.80;99.90;;;;;;6161914;23;20024;-91
2022/11/06 05:11:05;;;;;;;7.90;2.90;;;9.80;99.90;;;;;;6176346;22;20023;-92
2022/11/06 05:13:30;;;;;;;7.90;2.70;;;9.80;99.90;;;;;;6187726;22;20017;-91
2022/11/06 05:15:57;;;;;;;7.37;2.80;;;9.80;99.90;;;;;;6169460;23;20058;-90
2022/11/06 05:18:24;;;;;;;4.60;2.58;;;9.80;99.90;;;;;;6161016;23;20023;-91
2022/11/06 05:22:56;;;;;;;6.05;2.75;;;9.80;99.90;;;;;;6160933;23;20023;-91
2022/11/06 05:23:39;;;;;;;5.20;2.97;;;9.80;99.90;;;;;;6185600;23;20323;-89
2022/11/06 05:26:06;;;;;;;4.30;2.40;;;9.90;99.90;;;;;;6160974;23;20349;-91
2022/11/06 05:28:32;;;;;;;7.35;3.08;;;9.90;99.90;;;;;;6160933;23;20061;-90
2022/11/06 05:30:58;;;;;;;5.90;2.70;;;9.90;99.90;;;;;;6136835;23;20044;-91
2022/11/06 05:33:24;;;;;;;6.27;2.77;;;9.90;99.90;;;;;;6160830;23;20016;-90
2022/11/06 05:35:50;;;;;;;5.97;2.73;;;9.90;99.90;;;;;;6160954;23;20092;-90
2022/11/06 05:38:16;;;;;;;5.22;2.55;;;9.90;99.90;;;;;;6160666;23;20016;-90
2022/11/06 05:40:41;;;;;;;5.90;2.60;;;9.90;99.90;;;;;;6160959;23;20065;-90
2022/11/06 05:43:07;;;;;;;6.53;2.67;;;9.80;99.90;;;;;;6161218;23;20024;-91
2022/11/06 05:45:33;;;;;;;6.57;2.93;;;9.90;99.90;;;;;;6161054;23;20016;-90
2022/11/06 05:47:59;;;;;;;6.07;2.30;;;9.90;99.90;;;;;;6160990;23;20103;-90
2022/11/06 05:50:25;;;;;;;5.00;2.57;;;9.90;99.90;;;;;;6161043;22;20024;-91
2022/11/06 05:52:51;;;;;;;5.22;2.15;;;9.80;99.90;;;;;;6161139;23;20024;-91
2022/11/06 05:55:17;;;;;;;5.22;2.47;;;9.90;99.90;;;;;;6161030;23;20013;-92
2022/11/06 05:57:43;;;;;;;6.53;2.40;;;9.80;99.90;;;;;;6161116;23;20013;-91
2022/11/06 06:00:10;;;;;;;5.70;2.70;;;9.80;99.90;;;;;;6136608;23;20259;-92
2022/11/06 06:02:36;;;;;;;4.53;2.35;;;9.80;99.90;;;;;;6136599;23;20048;-90
2022/11/06 06:05:04;;;;;;;4.82;2.45;;;9.80;99.90;;;;;;6160798;23;20096;-89
2022/11/06 06:07:30;;;;;;;4.70;2.28;;;9.80;99.90;;;;;;6161000;23;20028;-90
2022/11/06 06:09:56;;;;;;;4.20;2.13;;;9.80;99.90;;;;;;6160773;23;20009;-93
2022/11/06 06:12:25;;;;;;;4.27;2.37;;;9.80;99.90;;;;;;6160948;23;20072;-89
2022/11/06 06:14:51;;;;;;;6.63;2.30;;;9.80;99.90;;;;;;6137156;23;20020;-90
2022/11/06 06:17:20;;;;;;;6.18;2.30;;;9.80;99.90;;;;;;6160904;23;20051;-91
2022/11/06 06:19:46;;;;;;;5.53;2.25;;;9.90;99.90;;;;;;6160799;23;20027;-91
2022/11/06 06:22:12;;;;;;;5.55;2.38;;;9.90;99.90;;;;;;6160797;23;20020;-91
2022/11/06 06:24:37;;;;;;;5.27;2.07;;;9.90;99.90;;;;;;6160925;22;20024;-90
2022/11/06 06:27:03;;;;;;;5.97;2.70;;;9.80;99.90;;;;;;6136646;23;20468;-91
2022/11/06 06:29:30;;;;;;;5.38;2.03;;;9.80;99.90;;;;;;6160877;23;20021;-91
2022/11/06 06:31:56;;;;;;;5.45;2.20;;;9.80;99.90;;;;;;6161090;23;20017;-90
2022/11/06 06:34:21;;;;;;;5.73;2.10;;;9.80;99.90;;;;;;6161070;22;20012;-92
2022/11/06 06:36:51;;;;;;;5.30;2.43;;;9.80;99.90;;;;;;6160822;23;20283;-90
2022/11/06 06:39:18;;;;;;;3.33;1.77;;;9.80;99.90;;;;;;6160622;23;20040;-91
2022/11/06 06:41:44;;;;;;;3.50;1.65;;;9.80;99.90;;;;;;6160698;23;20099;-91
2022/11/06 06:44:10;;;;;;;5.22;2.42;;;9.80;99.90;;;;;;6160938;23;20012;-90
2022/11/06 06:46:36;;;;;;;4.82;1.85;;;9.80;99.90;;;;;;6160984;23;20473;-92
2022/11/06 06:49:02;;;;;;;3.77;2.20;;;9.80;99.90;;;;;;6160877;22;20027;-91
2022/11/06 06:52:08;;;;;;;6.55;2.05;;;9.80;99.90;;;;;;6160469;23;20013;-90
2022/11/06 06:54:34;;;;;;;4.65;2.25;;;9.80;99.90;;;;;;6176855;23;20089;-90
2022/11/06 06:56:59;;;;;;;5.20;2.00;;;9.80;99.90;;;;;;6160567;23;20095;-89
2022/11/06 06:59:27;;;;;;;5.10;2.00;;;9.80;99.90;;;;;;6160528;23;20048;-91
2022/11/06 07:01:53;;;;;;;5.05;2.10;;;9.80;99.90;;;;;;6185230;23;20012;-90
2022/11/06 07:04:19;;;;;;;5.57;2.05;;;9.80;99.90;;;;;;6136521;23;20027;-90
2022/11/06 07:06:45;;;;;;;4.85;2.10;;;9.80;99.90;;;;;;6160765;23;20023;-91
2022/11/06 07:09:10;;;;;;;5.80;2.30;;;9.80;99.90;;;;;;6161119;23;20050;-91
2022/11/06 07:11:36;;;;;;;4.60;1.83;;;9.90;99.90;;;;;;6128938;22;20011;-88
2022/11/06 07:14:02;;;;;;;3.80;1.70;;;9.80;99.90;;;;;;6186572;22;20005;-89
2022/11/06 07:16:28;;;;;;;4.50;1.87;;;9.80;99.90;;;;;;6167104;22;20446;-91
2022/11/06 07:18:55;;;;;;;4.63;1.80;;;9.80;99.90;;;;;;6160436;23;20017;-91
2022/11/06 07:21:21;;;;;;;4.82;1.80;;;9.80;99.90;;;;;;6135866;23;20024;-91
2022/11/06 07:23:52;;;;;;;7.00;1.65;;;9.90;99.90;;;;;;6160112;23;20021;-90
2022/11/06 07:26:18;;;;;;;3.55;1.65;;;9.90;99.90;;;;;;6160336;23;20025;-91
2022/11/06 07:28:43;;;;;;;5.07;1.53;;;9.90;99.90;;;;;;6160158;23;20013;-90
2022/11/06 07:31:11;;;;;;;3.37;1.60;;;9.90;99.90;;;;;;6160364;23;20078;-90
2022/11/06 07:33:38;;;;;;;3.38;1.63;;;9.90;99.90;;;;;;6160131;23;20119;-91
2022/11/06 07:36:05;;;;;;;3.53;1.67;;;10.00;99.90;;;;;;6161150;23;20019;-92
2022/11/06 07:38:36;;;;;;;5.03;1.77;;;10.00;99.90;;;;;;6137356;23;20096;-91
2022/11/06 07:41:07;;;;;;;4.10;1.88;;;10.00;99.90;;;;;;6162011;22;20474;-91
2022/11/06 07:43:33;;;;;;;3.95;1.40;;;10.00;99.90;;;;;;6161678;23;20095;-90
2022/11/06 07:46:04;;;;;;;4.00;1.48;;;10.10;99.90;;;;;;6161660;23;20087;-90
2022/11/06 07:54:19;;;;;;;4.90;1.73;;;10.10;99.90;;;;;;6180858;22;20021;-90
2022/11/06 07:56:45;;;;;;;3.00;1.57;;;10.20;99.90;;;;;;6131489;23;20021;-90
2022/11/06 07:59:10;;;;;;;4.87;1.53;;;10.20;99.90;;;;;;6131483;23;20074;-90
2022/11/06 08:01:36;;;;;;;3.50;1.10;;;10.30;99.90;;;;;;6106861;23;20017;-90
2022/11/06 08:04:22;;;;;;;3.87;1.20;;;10.20;99.90;;;;;;6131559;23;20481;-89
2022/11/06 08:13:05;;;;;;;8.35;1.90;;;10.30;99.90;;;;;;6188939;22;19963;-91
2022/11/06 08:15:56;;;;;;;3.22;1.20;;;10.20;99.90;;;;;;6136836;23;20446;-89
2022/11/06 08:18:40;;;;;;;4.70;1.38;;;10.30;99.90;;;;;;6161051;22;20024;-92
2022/11/06 08:21:07;;;;;;;3.33;1.10;;;10.30;99.90;;;;;;6161622;23;20060;-91
2022/11/06 08:23:34;;;;;;;3.42;1.52;;;10.30;99.90;;;;;;6161833;23;20027;-92
2022/11/06 08:26:00;;;;;;;;;;;10.30;99.90;;;;;;6162422;22;20013;-91
2022/11/06 08:28:27;;;;;;;2.72;1.00;;;10.30;99.90;;;;;;6137024;23;20000;-92
2022/11/06 08:30:53;;;;;;;4.38;1.35;;;10.30;99.90;;;;;;6161661;23;20017;-93
2022/11/06 08:33:21;;;;;;;4.40;1.40;;;10.30;99.90;;;;;;6161941;23;20095;-91
2022/11/06 08:35:47;;;;;;;2.72;1.10;;;10.30;99.90;;;;;;6163041;22;20050;-91
2022/11/06 08:38:12;;;;;;;3.45;1.48;;;10.30;99.90;;;;;;6161493;23;20021;-91
2022/11/06 08:40:39;;;;;;;2.37;1.10;;;10.30;99.90;;;;;;6137310;23;20016;-92
2022/11/06 08:43:09;;;;;;;2.88;1.13;;;10.30;99.90;;;;;;6161746;22;20449;-93
2022/11/06 08:45:39;;;;;;;2.55;1.05;;;10.30;99.90;;;;;;6136927;23;20095;-91
2022/11/06 08:48:06;;;;;;;2.90;1.33;;;10.30;99.90;;;;;;6161711;22;20027;-93
2022/11/06 08:50:36;;;;;;;2.50;1.33;;;10.30;99.90;;;;;;6161825;23;20016;-92
2022/11/06 08:53:03;;;;;;;4.70;1.15;;;10.40;99.90;;;;;;6161810;22;20458;-92
2022/11/06 08:55:29;;;;;;;5.35;1.00;;;10.40;99.90;;;;;;6161476;23;20012;-92
2022/11/06 08:58:05;;;;;;;;;;;10.40;99.90;;;;;;6161477;23;20077;-93
2022/11/06 09:03:22;;;;;;;4.20;1.58;;;10.50;99.90;;;;;;6152553;23;20383;-92
2022/11/06 09:05:48;;;;;;;2.33;1.03;;;10.50;99.90;;;;;;6136504;23;20109;-91
2022/11/06 09:08:15;;;;;;;3.27;1.27;;;10.50;99.90;;;;;;6137324;23;20048;-92
2022/11/06 09:10:42;;;;;;;4.25;1.05;;;10.50;99.90;;;;;;6169474;22;20024;-91
2022/11/06 09:13:14;;;;;;;4.10;1.20;;;10.50;99.90;;;;;;6187851;22;20016;-92
2022/11/06 09:15:40;;;;;;;2.80;1.15;;;10.60;99.90;;;;;;6175937;23;20031;-92
2022/11/06 09:18:06;;;;;;;2.67;1.00;;;10.60;99.90;;;;;;6161727;23;20095;-93
2022/11/06 09:20:32;;;;;;;3.83;1.13;;;10.60;99.90;;;;;;6161052;23;20021;-92
2022/11/06 09:23:04;;;;;;;4.43;1.33;;;10.60;99.90;;;;;;6159772;23;20017;-92
2022/11/06 09:25:31;;;;;;;2.58;1.17;;;10.60;99.90;;;;;;6186041;23;20409;-91
2022/11/06 09:27:57;;;;;;;2.33;1.00;;;10.70;99.90;;;;;;6160473;23;20070;-92
2022/11/06 09:30:24;;;;;;;3.95;1.20;;;10.70;99.90;;;;;;6159986;23;20095;-93
2022/11/06 09:35:27;;;;;;;2.88;1.10;;;10.80;99.90;;;;;;6211702;23;20085;-90
2022/11/06 09:37:53;;;;;;;2.47;0.90;;;10.80;99.90;;;;;;6185670;23;20472;-88
2022/11/06 09:40:27;;;;;;;3.23;1.30;;;10.90;99.90;;;;;;6136931;22;20020;-89
2022/11/06 09:43:17;;;;;;;3.50;1.30;;;10.90;99.90;;;;;;6185785;23;20016;-90
2022/11/06 09:51:33;;;;;;;2.17;0.85;;;10.90;99.90;;;;;;6173900;22;20025;-92
2022/11/06 09:54:53;;;;;;;2.88;0.85;;;11.00;99.90;;;;;;6206689;22;20023;-89
2022/11/06 09:57:26;;;;;;;3.88;0.82;;;11.00;99.90;;;;;;6128198;22;20024;-91
2022/11/06 09:59:52;;;;;;;4.18;0.98;;;11.00;99.90;;;;;;6129856;22;20450;-89
2022/11/06 10:02:44;;;;;;;2.65;0.95;;;11.00;99.90;;;;;;6100968;23;20059;-94
2022/11/06 10:05:27;;;;;;;1.90;0.95;;;11.00;99.90;;;;;;6243653;22;20013;-91
2022/11/06 10:15:23;;;;;;;3.35;0.90;;;11.00;99.90;;;;;;6182064;22;20015;-93
2022/11/06 10:18:14;;;;;;;3.58;0.88;;;11.00;99.90;;;;;;6131227;23;20377;-91
2022/11/06 10:20:53;;;;;;;2.40;0.82;;;11.10;99.90;;;;;;6131912;23;20176;-95
2022/11/06 10:24:05;;;;;;;3.53;1.10;;;11.10;99.90;;;;;;6131442;23;20096;-96
2022/11/06 10:26:47;;;;;;;2.67;0.90;;;11.10;99.90;;;;;;6156057;22;20098;-94
2022/11/06 10:29:25;;;;;;;4.13;0.98;;;11.10;99.90;;;;;;6131674;23;20021;-93
2022/11/06 10:32:12;;;;;;;3.45;0.77;;;11.20;99.90;;;;;;6132075;23;20013;-91
2022/11/06 10:34:47;;;;;;;2.40;0.90;;;11.10;99.90;;;;;;6131887;23;20025;-93
2022/11/06 10:37:31;;;;;;;2.15;0.80;;;11.10;99.90;;;;;;6132290;23;20014;-96
2022/11/06 10:40:23;;;;;;;3.65;0.90;;;11.10;99.90;;;;;;6253769;22;20051;-93
2022/11/06 15:15:48;;;;;;;1.25;0.43;;;11.50;99.90;;;;;;6218158;22;20024;-89
2022/11/06 15:18:23;;;;;;;2.63;0.50;;;11.50;99.90;;;;;;6285370;22;20421;-90
2022/11/06 15:20:57;;;;;;;1.83;0.60;;;11.40;99.90;;;;;;6285598;22;20030;-89
2022/11/06 15:23:33;;;;;;;2.72;0.70;;;11.40;99.90;;;;;;6285478;22;20517;-89
2022/11/06 16:39:25;;;;;;;3.67;1.17;;;10.70;99.90;;;;;;6236770;22;20051;-93
2022/11/06 16:42:02;;;;;;;2.78;1.00;;;10.70;99.90;;;;;;6186362;23;20077;-93
2022/11/06 16:49:43;;;;;;;4.47;1.73;;;10.60;99.90;;;;;;6212828;23;20025;-92
2022/11/06 16:52:27;;;;;;;3.80;1.10;;;10.60;99.90;;;;;;6186815;23;20021;-93
2022/11/06 16:54:55;;;;;;;3.15;1.02;;;10.60;99.90;;;;;;6186477;23;20024;-93
2022/11/06 16:57:26;;;;;;;4.75;1.10;;;10.50;99.90;;;;;;6186520;23;20048;-95
2022/11/06 16:59:57;;;;;;;2.10;0.90;;;10.50;99.90;;;;;;6187117;23;20469;-95
2022/11/06 17:02:27;;;;;;;2.97;1.05;;;10.50;99.90;;;;;;6187031;22;20013;-94
2022/11/06 17:05:32;;;;;;;2.92;0.90;;;10.50;99.90;;;;;;6186453;23;20338;-95
2022/11/06 17:08:24;;;;;;;3.28;1.00;;;10.50;99.90;;;;;;6072767;23;20021;-93
2022/11/06 17:10:51;;;;;;;5.57;0.80;;;10.40;99.90;;;;;;6186783;23;20095;-94
2022/11/06 17:13:38;;;;;;;3.10;0.95;;;10.30;99.90;;;;;;6187122;23;20016;-96
2022/11/06 17:16:05;;;;;;;1.25;0.50;;;10.30;99.90;;;;;;6188440;23;20081;-96
2022/11/06 17:18:31;;;;;;;1.85;0.60;;;10.20;99.90;;;;;;6188634;23;20017;-94
2022/11/06 17:28:40;;;;;;;2.00;0.30;;;9.90;99.90;;;;;;6182300;23;20021;-93
2022/11/06 18:08:54;;;;;;;0.95;0.28;;;9.10;99.90;;;;;;6197662;23;20028;-94
2022/11/06 18:11:20;;;;;;;0.80;0.20;;;9.10;99.90;;;;;;6161532;23;20023;-93
2022/11/06 19:08:55;;;;;;;1.20;0.45;;;8.90;99.90;;;;;;6210407;23;20346;-92
2022/11/06 19:11:21;;;;;;;2.00;0.50;;;9.00;99.90;;;;;;6136715;23;20027;-91
2022/11/06 19:13:47;;;;;;;1.93;0.50;;;9.00;99.90;;;;;;6161148;22;20017;-92
2022/11/06 19:16:13;;;;;;;1.27;0.40;;;8.90;99.90;;;;;;6136653;23;20021;-94
2022/11/06 19:18:57;;;;;;;2.30;0.70;;;8.90;99.90;;;;;;6136676;23;20020;-92
2022/11/06 19:49:48;;;;;;;2.50;0.68;;;8.90;99.90;;;;;;6211695;23;20078;-93
2022/11/06 19:54:50;;;;;;;4.07;1.00;;;8.90;99.90;;;;;;6235538;22;20324;-95
2022/11/06 19:57:16;;;;;;;2.13;0.82;;;8.90;99.90;;;;;;6130243;23;20359;-92
2022/11/06 19:59:44;;;;;;;2.33;0.85;;;8.90;99.90;;;;;;6134875;23;20021;-93
2022/11/06 20:10:26;;;;;;;1.95;0.82;;;8.90;99.90;;;;;;6210905;23;20027;-95
2022/11/06 20:12:51;;;;;;;2.30;1.00;;;8.90;99.90;;;;;;6138526;23;20021;-94
2022/11/06 20:15:19;;;;;;;3.40;1.03;;;8.90;99.90;;;;;;6166316;23;20012;-92
2022/11/06 20:17:44;;;;;;;1.58;0.77;;;8.90;99.90;;;;;;6139399;23;20458;-96
2022/11/06 20:20:15;;;;;;;1.97;0.83;;;8.90;99.90;;;;;;6139292;23;20026;-95
2022/11/06 21:04:22;;;;;;;;;;;;;;;;;;;;;
2022/11/06 21:59:13;;;;;;;5.47;2.00;;;9.10;99.90;;;;;;6245095;22;20023;-95
2022/11/06 22:32:02;;;;;;;5.15;2.70;;;9.50;99.90;;;;;;6143806;22;20024;-93
2022/11/06 22:34:30;;;;;;;5.07;2.47;;;9.50;99.90;;;;;;6136919;23;20323;-94
2022/11/06 22:37:30;;;;;;;5.30;2.55;;;9.60;99.90;;;;;;6161741;23;20017;-95
2022/11/06 22:39:56;;;;;;;5.70;2.53;;;9.60;99.90;;;;;;6161852;23;20020;-93
2022/11/06 22:42:21;;;;;;;5.17;2.70;;;9.60;99.90;;;;;;6161353;23;20111;-95
2022/11/06 23:56:35;;;;;;;5.75;2.80;;;10.50;99.90;;;;;;6244644;22;20027;-96
